sensor_id;sensor_type;location;lat;lon;timestamp;pressure;altitude;pressure_sealevel;temperature;humidity
23619;BME280;18207;32.078;34.818;2023-06-26T00:00:57;100266.16;;;31.42;49.11
23619;BME280;18207;32.078;34.818;2023-06-26T00:03:31;100264.53;;;31.41;48.53
23619;BME280;18207;32.078;34.818;2023-06-26T00:06:02;100265.75;;;31.40;48.87
23619;BME280;18207;32.078;34.818;2023-06-26T00:08:32;100264.56;;;31.38;48.55
23619;BME280;18207;32.078;34.818;2023-06-26T00:11:02;100265.41;;;31.35;48.53
23619;BME280;18207;32.078;34.818;2023-06-26T00:13:32;100266.63;;;31.34;48.53
23619;BME280;18207;32.078;34.818;2023-06-26T00:16:02;100269.09;;;31.32;49.22
23619;BME280;18207;32.078;34.818;2023-06-26T00:18:34;100270.78;;;31.26;48.65
23619;BME280;18207;32.078;34.818;2023-06-26T00:21:04;100261.50;;;31.19;49.19
23619;BME280;18207;32.078;34.818;2023-06-26T00:23:35;100260.31;;;31.16;48.65
23619;BME280;18207;32.078;34.818;2023-06-26T00:26:07;100260.34;;;31.13;48.67
23619;BME280;18207;32.078;34.818;2023-06-26T00:28:37;100255.50;;;31.10;49.17
23619;BME280;18207;32.078;34.818;2023-06-26T00:31:08;100252.31;;;31.04;48.65
23619;BME280;18207;32.078;34.818;2023-06-26T00:33:40;100250.28;;;31.01;49.20
23619;BME280;18207;32.078;34.818;2023-06-26T00:36:10;100251.53;;;30.97;48.93
23619;BME280;18207;32.078;34.818;2023-06-26T00:38:40;100251.94;;;30.95;49.19
23619;BME280;18207;32.078;34.818;2023-06-26T00:41:09;100247.91;;;30.93;49.06
23619;BME280;18207;32.078;34.818;2023-06-26T00:43:40;100259.28;;;30.93;48.59
23619;BME280;18207;32.078;34.818;2023-06-26T00:46:14;100258.47;;;30.92;48.73
23619;BME280;18207;32.078;34.818;2023-06-26T00:48:48;100243.88;;;30.90;49.24
23619;BME280;18207;32.078;34.818;2023-06-26T00:51:19;100252.00;;;30.88;48.66
23619;BME280;18207;32.078;34.818;2023-06-26T00:53:50;100252.03;;;30.85;48.77
23619;BME280;18207;32.078;34.818;2023-06-26T00:56:21;100254.09;;;30.81;48.78
23619;BME280;18207;32.078;34.818;2023-06-26T00:58:51;100251.69;;;30.79;48.87
23619;BME280;18207;32.078;34.818;2023-06-26T01:01:20;100248.03;;;30.79;48.69
23619;BME280;18207;32.078;34.818;2023-06-26T01:03:55;100246.44;;;30.78;49.37
23619;BME280;18207;32.078;34.818;2023-06-26T01:06:29;100246.03;;;30.76;48.85
23619;BME280;18207;32.078;34.818;2023-06-26T01:09:02;100249.69;;;30.73;48.75
23619;BME280;18207;32.078;34.818;2023-06-26T01:11:32;100239.16;;;30.70;49.48
23619;BME280;18207;32.078;34.818;2023-06-26T01:14:02;100238.38;;;30.69;48.82
23619;BME280;18207;32.078;34.818;2023-06-26T01:16:34;100240.81;;;30.67;49.40
23619;BME280;18207;32.078;34.818;2023-06-26T01:19:14;100244.88;;;30.66;49.33
23619;BME280;18207;32.078;34.818;2023-06-26T01:22:00;100240.84;;;30.64;48.86
23619;BME280;18207;32.078;34.818;2023-06-26T01:24:39;100240.84;;;30.64;49.39
23619;BME280;18207;32.078;34.818;2023-06-26T01:27:12;100239.66;;;30.61;49.53
23619;BME280;18207;32.078;34.818;2023-06-26T01:29:47;100233.19;;;30.57;49.16
23619;BME280;18207;32.078;34.818;2023-06-26T01:32:18;100227.94;;;30.56;49.08
23619;BME280;18207;32.078;34.818;2023-06-26T01:34:49;100224.72;;;30.54;49.37
23619;BME280;18207;32.078;34.818;2023-06-26T01:37:19;100231.19;;;30.54;49.10
23619;BME280;18207;32.078;34.818;2023-06-26T01:39:50;100229.16;;;30.55;49.66
23619;BME280;18207;32.078;34.818;2023-06-26T01:42:22;100238.47;;;30.55;49.40
23619;BME280;18207;32.078;34.818;2023-06-26T01:44:55;100224.28;;;30.55;49.52
23619;BME280;18207;32.078;34.818;2023-06-26T01:47:28;100230.78;;;30.56;49.16
23619;BME280;18207;32.078;34.818;2023-06-26T01:50:07;100227.13;;;30.55;49.49
23619;BME280;18207;32.078;34.818;2023-06-26T01:52:43;100225.53;;;30.54;48.99
23619;BME280;18207;32.078;34.818;2023-06-26T01:55:23;100230.41;;;30.50;49.67
23619;BME280;18207;32.078;34.818;2023-06-26T01:57:59;100228.00;;;30.49;49.24
23619;BME280;18207;32.078;34.818;2023-06-26T02:00:31;100237.72;;;30.48;49.19
23619;BME280;18207;32.078;34.818;2023-06-26T02:03:02;100229.56;;;30.46;49.08
23619;BME280;18207;32.078;34.818;2023-06-26T02:05:33;100234.50;;;30.42;49.56
23619;BME280;18207;32.078;34.818;2023-06-26T02:08:03;100241.78;;;30.40;49.21
23619;BME280;18207;32.078;34.818;2023-06-26T02:10:34;100244.63;;;30.37;49.13
23619;BME280;18207;32.078;34.818;2023-06-26T02:13:07;100230.09;;;30.35;49.10
23619;BME280;18207;32.078;34.818;2023-06-26T02:15:37;100247.50;;;30.33;49.58
23619;BME280;18207;32.078;34.818;2023-06-26T02:18:07;100239.81;;;30.30;49.15
23619;BME280;18207;32.078;34.818;2023-06-26T02:20:37;100235.78;;;30.28;49.37
23619;BME280;18207;32.078;34.818;2023-06-26T02:23:07;100236.19;;;30.26;49.64
23619;BME280;18207;32.078;34.818;2023-06-26T02:25:37;100239.47;;;30.25;49.30
23619;BME280;18207;32.078;34.818;2023-06-26T02:28:08;100230.94;;;30.25;49.49
23619;BME280;18207;32.078;34.818;2023-06-26T02:30:38;100233.78;;;30.21;49.80
23619;BME280;18207;32.078;34.818;2023-06-26T02:33:09;100231.41;;;30.16;49.23
23619;BME280;18207;32.078;34.818;2023-06-26T02:35:39;100231.00;;;30.11;49.42
23619;BME280;18207;32.078;34.818;2023-06-26T02:38:09;100237.50;;;30.08;49.78
23619;BME280;18207;32.078;34.818;2023-06-26T02:40:41;100237.53;;;30.04;49.99
23619;BME280;18207;32.078;34.818;2023-06-26T02:43:13;100232.66;;;30.01;49.48
23619;BME280;18207;32.078;34.818;2023-06-26T02:45:44;100232.69;;;29.98;49.80
23619;BME280;18207;32.078;34.818;2023-06-26T02:48:14;100237.16;;;29.95;49.42
23619;BME280;18207;32.078;34.818;2023-06-26T02:50:44;100225.03;;;29.95;49.82
23619;BME280;18207;32.078;34.818;2023-06-26T02:53:15;100229.44;;;29.96;49.91
23619;BME280;18207;32.078;34.818;2023-06-26T02:55:45;100233.53;;;29.95;49.55
23619;BME280;18207;32.078;34.818;2023-06-26T02:58:18;100236.31;;;29.91;49.70
23619;BME280;18207;32.078;34.818;2023-06-26T03:00:48;100231.53;;;29.85;49.69
23619;BME280;18207;32.078;34.818;2023-06-26T03:03:18;100250.13;;;29.82;49.92
23619;BME280;18207;32.078;34.818;2023-06-26T03:05:48;100242.84;;;29.78;49.49
23619;BME280;18207;32.078;34.818;2023-06-26T03:08:18;100245.72;;;29.74;49.74
23619;BME280;18207;32.078;34.818;2023-06-26T03:10:49;100245.31;;;29.72;49.78
23619;BME280;18207;32.078;34.818;2023-06-26T03:13:21;100242.09;;;29.70;49.48
23619;BME280;18207;32.078;34.818;2023-06-26T03:15:51;100239.66;;;29.65;50.00
23619;BME280;18207;32.078;34.818;2023-06-26T03:18:21;100237.66;;;29.62;49.64
23619;BME280;18207;32.078;34.818;2023-06-26T03:20:52;100239.28;;;29.60;50.24
23619;BME280;18207;32.078;34.818;2023-06-26T03:23:24;100246.16;;;29.59;49.71
23619;BME280;18207;32.078;34.818;2023-06-26T03:25:54;100240.09;;;29.57;50.12
23619;BME280;18207;32.078;34.818;2023-06-26T03:28:26;100238.09;;;29.54;50.33
23619;BME280;18207;32.078;34.818;2023-06-26T03:30:56;100246.59;;;29.54;50.41
23619;BME280;18207;32.078;34.818;2023-06-26T03:33:27;100243.34;;;29.55;50.15
23619;BME280;18207;32.078;34.818;2023-06-26T03:35:57;100240.09;;;29.57;50.06
23619;BME280;18207;32.078;34.818;2023-06-26T03:38:27;100241.72;;;29.58;50.15
23619;BME280;18207;32.078;34.818;2023-06-26T03:40:58;100245.78;;;29.60;50.38
23619;BME280;18207;32.078;34.818;2023-06-26T03:43:29;100237.66;;;29.62;50.26
23619;BME280;18207;32.078;34.818;2023-06-26T03:45:59;100251.81;;;29.62;50.57
23619;BME280;18207;32.078;34.818;2023-06-26T03:48:30;100248.19;;;29.58;50.40
23619;BME280;18207;32.078;34.818;2023-06-26T03:51:00;100251.44;;;29.60;50.45
23619;BME280;18207;32.078;34.818;2023-06-26T03:53:31;100252.66;;;29.59;50.36
23619;BME280;18207;32.078;34.818;2023-06-26T03:56:01;100251.44;;;29.60;50.68
23619;BME280;18207;32.078;34.818;2023-06-26T03:58:33;100257.47;;;29.62;50.48
23619;BME280;18207;32.078;34.818;2023-06-26T04:01:03;100258.31;;;29.63;50.69
23619;BME280;18207;32.078;34.818;2023-06-26T04:03:34;100265.19;;;29.62;50.54
23619;BME280;18207;32.078;34.818;2023-06-26T04:06:04;100260.31;;;29.62;50.73
23619;BME280;18207;32.078;34.818;2023-06-26T04:08:35;100261.53;;;29.61;50.82
23619;BME280;18207;32.078;34.818;2023-06-26T04:11:05;100264.78;;;29.60;50.42
23619;BME280;18207;32.078;34.818;2023-06-26T04:13:37;100270.84;;;29.62;51.23
23619;BME280;18207;32.078;34.818;2023-06-26T04:16:13;100267.59;;;29.67;50.80
23619;BME280;18207;32.078;34.818;2023-06-26T04:18:46;100265.56;;;29.71;50.62
23619;BME280;18207;32.078;34.818;2023-06-26T04:21:16;100268.78;;;29.73;50.59
23619;BME280;18207;32.078;34.818;2023-06-26T04:23:46;100267.16;;;29.75;50.71
23619;BME280;18207;32.078;34.818;2023-06-26T04:26:17;100270.41;;;29.77;50.95
23619;BME280;18207;32.078;34.818;2023-06-26T04:28:49;100267.97;;;29.79;50.62
23619;BME280;18207;32.078;34.818;2023-06-26T04:31:19;100276.06;;;29.81;51.08
23619;BME280;18207;32.078;34.818;2023-06-26T04:33:50;100277.25;;;29.83;50.66
23619;BME280;18207;32.078;34.818;2023-06-26T04:36:22;100278.88;;;29.84;50.66
23619;BME280;18207;32.078;34.818;2023-06-26T04:38:56;100280.91;;;29.87;50.82
23619;BME280;18207;32.078;34.818;2023-06-26T04:41:27;100286.97;;;29.89;50.72
23619;BME280;18207;32.078;34.818;2023-06-26T04:43:59;100285.31;;;29.92;51.19
23619;BME280;18207;32.078;34.818;2023-06-26T04:46:29;100293.44;;;29.97;51.13
23619;BME280;18207;32.078;34.818;2023-06-26T04:48:59;100286.16;;;29.99;50.93
23619;BME280;18207;32.078;34.818;2023-06-26T04:51:31;100292.59;;;30.03;51.22
23619;BME280;18207;32.078;34.818;2023-06-26T04:54:01;100295.03;;;30.08;51.02
23619;BME280;18207;32.078;34.818;2023-06-26T04:56:31;100293.38;;;30.14;51.39
23619;BME280;18207;32.078;34.818;2023-06-26T04:59:03;100292.97;;;30.19;51.41
23619;BME280;18207;32.078;34.818;2023-06-26T05:01:34;100292.09;;;30.26;51.04
23619;BME280;18207;32.078;34.818;2023-06-26T05:04:07;100306.66;;;30.31;51.11
23619;BME280;18207;32.078;34.818;2023-06-26T05:06:38;100300.56;;;30.36;51.33
23619;BME280;18207;32.078;34.818;2023-06-26T05:09:08;100305.78;;;30.41;51.13
23619;BME280;18207;32.078;34.818;2023-06-26T05:11:38;100304.94;;;30.47;51.11
23619;BME280;18207;32.078;34.818;2023-06-26T05:14:10;100300.09;;;30.51;51.36
23619;BME280;18207;32.078;34.818;2023-06-26T05:16:41;100301.69;;;30.56;51.49
23619;BME280;18207;32.078;34.818;2023-06-26T05:19:11;100307.75;;;30.61;51.29
23619;BME280;18207;32.078;34.818;2023-06-26T05:21:42;100308.13;;;30.67;51.28
23619;BME280;18207;32.078;34.818;2023-06-26T05:24:15;100303.63;;;30.73;51.32
23619;BME280;18207;32.078;34.818;2023-06-26T05:26:46;100301.97;;;30.79;51.17
23619;BME280;18207;32.078;34.818;2023-06-26T05:29:19;100307.97;;;30.84;51.45
23619;BME280;18207;32.078;34.818;2023-06-26T05:31:51;100305.50;;;30.90;51.59
23619;BME280;18207;32.078;34.818;2023-06-26T05:34:23;100302.66;;;30.97;51.20
23619;BME280;18207;32.078;34.818;2023-06-26T05:36:59;100305.44;;;31.04;51.16
23619;BME280;18207;32.078;34.818;2023-06-26T05:39:30;100311.88;;;31.11;51.34
23619;BME280;18207;32.078;34.818;2023-06-26T05:42:01;100308.19;;;31.18;50.79
23619;BME280;18207;32.078;34.818;2023-06-26T05:44:33;100312.63;;;31.22;51.44
23619;BME280;18207;32.078;34.818;2023-06-26T05:47:03;100303.25;;;31.25;50.94
23619;BME280;18207;32.078;34.818;2023-06-26T05:49:34;100306.03;;;31.29;50.90
23619;BME280;18207;32.078;34.818;2023-06-26T05:52:06;100312.91;;;31.34;50.77
23619;BME280;18207;32.078;34.818;2023-06-26T05:54:37;100315.28;;;31.39;50.99
23619;BME280;18207;32.078;34.818;2023-06-26T05:57:09;100318.06;;;31.46;51.04
23619;BME280;18207;32.078;34.818;2023-06-26T05:59:43;100316.38;;;31.52;51.01
23619;BME280;18207;32.078;34.818;2023-06-26T06:02:14;100316.78;;;31.58;50.35
23619;BME280;18207;32.078;34.818;2023-06-26T06:04:44;100317.13;;;31.63;50.29
23619;BME280;18207;32.078;34.818;2023-06-26T06:07:14;100314.25;;;31.67;50.22
23619;BME280;18207;32.078;34.818;2023-06-26T06:09:45;100321.50;;;31.71;50.25
23619;BME280;18207;32.078;34.818;2023-06-26T06:12:15;100312.13;;;31.74;50.62
23619;BME280;18207;32.078;34.818;2023-06-26T06:14:47;100308.81;;;31.79;50.72
23619;BME280;18207;32.078;34.818;2023-06-26T06:17:17;100309.59;;;31.83;49.97
23619;BME280;18207;32.078;34.818;2023-06-26T06:19:47;100314.81;;;31.88;50.72
23619;BME280;18207;32.078;34.818;2023-06-26T06:22:17;100316.38;;;31.93;49.97
23619;BME280;18207;32.078;34.818;2023-06-26T06:24:51;100326.09;;;31.99;50.20
23619;BME280;18207;32.078;34.818;2023-06-26T06:27:21;100314.66;;;32.02;49.84
23619;BME280;18207;32.078;34.818;2023-06-26T06:29:53;100319.06;;;32.07;49.80
23619;BME280;18207;32.078;34.818;2023-06-26T06:32:23;100313.38;;;32.10;49.83
23619;BME280;18207;32.078;34.818;2023-06-26T06:34:54;100314.56;;;32.13;49.67
23619;BME280;18207;32.078;34.818;2023-06-26T06:37:24;100310.88;;;32.16;49.83
23619;BME280;18207;32.078;34.818;2023-06-26T06:39:57;100310.44;;;32.17;49.35
23619;BME280;18207;32.078;34.818;2023-06-26T06:42:28;100306.31;;;32.22;49.37
23619;BME280;18207;32.078;34.818;2023-06-26T06:45:00;100304.25;;;32.25;49.25
23619;BME280;18207;32.078;34.818;2023-06-26T06:47:31;100304.19;;;32.29;49.86
23619;BME280;18207;32.078;34.818;2023-06-26T06:50:02;100313.50;;;32.33;49.71
23619;BME280;18207;32.078;34.818;2023-06-26T06:52:37;100307.31;;;32.38;49.13
23619;BME280;18207;32.078;34.818;2023-06-26T06:55:09;100317.41;;;32.42;49.66
23619;BME280;18207;32.078;34.818;2023-06-26T06:57:40;100305.59;;;32.47;48.87
23619;BME280;18207;32.078;34.818;2023-06-26T07:00:14;100307.16;;;32.52;48.84
23619;BME280;18207;32.078;34.818;2023-06-26T07:02:45;100315.63;;;32.55;48.79
23619;BME280;18207;32.078;34.818;2023-06-26T07:05:17;100311.97;;;32.58;48.65
23619;BME280;18207;32.078;34.818;2023-06-26T07:07:47;100305.41;;;32.61;48.52
23619;BME280;18207;32.078;34.818;2023-06-26T07:10:17;100309.44;;;32.64;49.03
23619;BME280;18207;32.078;34.818;2023-06-26T07:12:48;100309.78;;;32.69;48.85
23619;BME280;18207;32.078;34.818;2023-06-26T07:15:20;100319.88;;;32.74;49.23
23619;BME280;18207;32.078;34.818;2023-06-26T07:17:52;100312.50;;;32.76;48.52
23619;BME280;18207;32.078;34.818;2023-06-26T07:20:22;100314.06;;;32.81;49.16
23619;BME280;18207;32.078;34.818;2023-06-26T07:22:53;100316.41;;;32.86;48.88
23619;BME280;18207;32.078;34.818;2023-06-26T07:25:23;100321.25;;;32.89;49.04
23619;BME280;18207;32.078;34.818;2023-06-26T07:27:53;100324.88;;;32.93;48.93
23619;BME280;18207;32.078;34.818;2023-06-26T07:30:25;100313.44;;;32.96;48.59
23619;BME280;18207;32.078;34.818;2023-06-26T07:32:56;100315.44;;;32.99;48.34
23619;BME280;18207;32.078;34.818;2023-06-26T07:35:25;100314.13;;;33.04;48.99
23619;BME280;18207;32.078;34.818;2023-06-26T07:37:55;100321.00;;;33.06;48.21
23619;BME280;18207;32.078;34.818;2023-06-26T07:40:26;100318.13;;;33.10;48.20
23619;BME280;18207;32.078;34.818;2023-06-26T07:42:57;100315.22;;;33.13;48.28
23619;BME280;18207;32.078;34.818;2023-06-26T07:45:28;100319.63;;;33.17;48.42
23619;BME280;18207;32.078;34.818;2023-06-26T07:47:59;100310.22;;;33.20;48.85
23619;BME280;18207;32.078;34.818;2023-06-26T07:50:29;100309.34;;;33.23;48.57
23619;BME280;18207;32.078;34.818;2023-06-26T07:52:59;100309.28;;;33.27;48.24
23619;BME280;18207;32.078;34.818;2023-06-26T07:55:30;100312.47;;;33.32;48.09
23619;BME280;18207;32.078;34.818;2023-06-26T07:58:00;100317.28;;;33.35;48.63
23619;BME280;18207;32.078;34.818;2023-06-26T08:00:32;100310.72;;;33.38;48.49
23619;BME280;18207;32.078;34.818;2023-06-26T08:03:03;100302.59;;;33.37;48.21
23619;BME280;18207;32.078;34.818;2023-06-26T08:05:39;100305.47;;;33.37;47.85
23619;BME280;18207;32.078;34.818;2023-06-26T08:08:09;100316.41;;;33.38;48.08
23619;BME280;18207;32.078;34.818;2023-06-26T08:10:40;100311.88;;;33.41;48.17
23619;BME280;18207;32.078;34.818;2023-06-26T08:13:10;100313.06;;;33.43;48.01
23619;BME280;18207;32.078;34.818;2023-06-26T08:15:41;100305.25;;;33.47;48.26
23619;BME280;18207;32.078;34.818;2023-06-26T08:18:12;100310.09;;;33.50;48.26
23619;BME280;18207;32.078;34.818;2023-06-26T08:20:42;100313.66;;;33.54;48.13
23619;BME280;18207;32.078;34.818;2023-06-26T08:23:12;100307.94;;;33.58;47.82
23619;BME280;18207;32.078;34.818;2023-06-26T08:25:43;100309.13;;;33.60;47.95
23619;BME280;18207;32.078;34.818;2023-06-26T08:28:15;100305.03;;;33.61;47.69
23619;BME280;18207;32.078;34.818;2023-06-26T08:30:47;100311.91;;;33.64;47.92
23619;BME280;18207;32.078;34.818;2023-06-26T08:33:17;100299.69;;;33.63;47.60
23619;BME280;18207;32.078;34.818;2023-06-26T08:35:47;100300.50;;;33.64;47.66
23619;BME280;18207;32.078;34.818;2023-06-26T08:38:18;100296.78;;;33.67;47.26
23619;BME280;18207;32.078;34.818;2023-06-26T08:40:49;100296.34;;;33.68;47.35
23619;BME280;18207;32.078;34.818;2023-06-26T08:43:23;100299.13;;;33.72;47.53
23619;BME280;18207;32.078;34.818;2023-06-26T08:45:56;100301.91;;;33.75;46.93
23619;BME280;18207;32.078;34.818;2023-06-26T08:48:29;100292.88;;;33.80;47.55
23619;BME280;18207;32.078;34.818;2023-06-26T08:51:10;100292.78;;;33.84;46.76
23619;BME280;18207;32.078;34.818;2023-06-26T08:53:50;100289.88;;;33.87;47.25
23619;BME280;18207;32.078;34.818;2023-06-26T08:56:24;100302.44;;;33.90;46.97
23619;BME280;18207;32.078;34.818;2023-06-26T08:58:55;100296.66;;;33.93;46.82
23619;BME280;18207;32.078;34.818;2023-06-26T09:01:28;100292.94;;;33.96;46.75
23619;BME280;18207;32.078;34.818;2023-06-26T09:03:58;100296.16;;;33.98;46.95
23619;BME280;18207;32.078;34.818;2023-06-26T09:06:29;100300.19;;;34.01;47.13
23619;BME280;18207;32.078;34.818;2023-06-26T09:08:59;100298.16;;;34.01;47.32
23619;BME280;18207;32.078;34.818;2023-06-26T09:11:29;100299.78;;;34.02;47.09
23619;BME280;18207;32.078;34.818;2023-06-26T09:14:00;100299.69;;;34.05;46.92
23619;BME280;18207;32.078;34.818;2023-06-26T09:16:40;100296.38;;;34.07;47.05
23619;BME280;18207;32.078;34.818;2023-06-26T09:19:11;100298.03;;;34.08;47.01
23619;BME280;18207;32.078;34.818;2023-06-26T09:21:43;100292.69;;;34.10;46.89
23619;BME280;18207;32.078;34.818;2023-06-26T09:24:14;100292.25;;;34.11;46.45
23619;BME280;18207;32.078;34.818;2023-06-26T09:26:44;100299.13;;;34.14;46.74
23619;BME280;18207;32.078;34.818;2023-06-26T09:29:19;100295.84;;;34.15;46.37
23619;BME280;18207;32.078;34.818;2023-06-26T09:31:52;100294.59;;;34.16;47.01
23619;BME280;18207;32.078;34.818;2023-06-26T09:34:22;100293.34;;;34.17;46.64
23619;BME280;18207;32.078;34.818;2023-06-26T09:37:00;100287.63;;;34.17;47.01
23619;BME280;18207;32.078;34.818;2023-06-26T09:39:31;100288.44;;;34.18;46.35
23619;BME280;18207;32.078;34.818;2023-06-26T09:42:03;100295.78;;;34.19;46.09
23619;BME280;18207;32.078;34.818;2023-06-26T09:44:35;100292.53;;;34.17;46.12
23619;BME280;18207;32.078;34.818;2023-06-26T09:47:07;100298.25;;;34.17;46.58
23619;BME280;18207;32.078;34.818;2023-06-26T09:49:41;100288.91;;;34.16;46.18
23619;BME280;18207;32.078;34.818;2023-06-26T09:52:14;100296.63;;;34.16;46.50
23619;BME280;18207;32.078;34.818;2023-06-26T09:54:46;100283.59;;;34.15;46.37
23619;BME280;18207;32.078;34.818;2023-06-26T09:57:18;100291.38;;;34.14;46.40
23619;BME280;18207;32.078;34.818;2023-06-26T09:59:49;100282.00;;;34.14;46.15
23619;BME280;18207;32.078;34.818;2023-06-26T10:02:22;100280.75;;;34.15;45.76
23619;BME280;18207;32.078;34.818;2023-06-26T10:04:52;100287.28;;;34.15;45.69
23619;BME280;18207;32.078;34.818;2023-06-26T10:07:24;100283.97;;;34.17;45.97
23619;BME280;18207;32.078;34.818;2023-06-26T10:09:56;100283.19;;;34.16;45.30
23619;BME280;18207;32.078;34.818;2023-06-26T10:12:30;100283.19;;;34.16;45.73
23619;BME280;18207;32.078;34.818;2023-06-26T10:15:03;100284.78;;;34.17;45.54
23619;BME280;18207;32.078;34.818;2023-06-26T10:17:37;100276.59;;;34.19;45.32
23619;BME280;18207;32.078;34.818;2023-06-26T10:20:09;100281.06;;;34.20;45.08
23619;BME280;18207;32.078;34.818;2023-06-26T10:22:45;100278.56;;;34.22;45.25
23619;BME280;18207;32.078;34.818;2023-06-26T10:25:19;100271.63;;;34.23;45.38
23619;BME280;18207;32.078;34.818;2023-06-26T10:27:55;100274.84;;;34.25;45.31
23619;BME280;18207;32.078;34.818;2023-06-26T10:30:31;100267.91;;;34.26;45.20
23619;BME280;18207;32.078;34.818;2023-06-26T10:33:04;100273.16;;;34.28;45.32
23619;BME280;18207;32.078;34.818;2023-06-26T10:35:43;100266.56;;;34.31;45.26
23619;BME280;18207;32.078;34.818;2023-06-26T10:38:13;100261.19;;;34.33;45.04
23619;BME280;18207;32.078;34.818;2023-06-26T10:40:45;100250.97;;;34.35;45.46
23619;BME280;18207;32.078;34.818;2023-06-26T10:43:18;100264.78;;;34.37;45.40
23619;BME280;18207;32.078;34.818;2023-06-26T10:45:50;100250.88;;;34.39;44.77
23619;BME280;18207;32.078;34.818;2023-06-26T10:48:29;100250.44;;;34.40;44.75
23619;BME280;18207;32.078;34.818;2023-06-26T10:51:14;100250.88;;;34.39;44.86
23619;BME280;18207;32.078;34.818;2023-06-26T10:53:54;100251.69;;;34.39;44.98
23619;BME280;18207;32.078;34.818;2023-06-26T10:56:44;100248.81;;;34.39;45.20
23619;BME280;18207;32.078;34.818;2023-06-26T10:59:19;100246.78;;;34.40;45.02
23619;BME280;18207;32.078;34.818;2023-06-26T11:01:56;100243.13;;;34.39;44.32
23619;BME280;18207;32.078;34.818;2023-06-26T11:04:45;100246.34;;;34.41;44.15
23619;BME280;18207;32.078;34.818;2023-06-26T11:07:20;100240.19;;;34.43;44.33
23619;BME280;18207;32.078;34.818;2023-06-26T11:09:56;100242.59;;;34.44;44.12
23619;BME280;18207;32.078;34.818;2023-06-26T11:12:39;100239.31;;;34.46;44.06
23619;BME280;18207;32.078;34.818;2023-06-26T11:15:11;100239.75;;;34.44;43.57
23619;BME280;18207;32.078;34.818;2023-06-26T11:17:43;100239.31;;;34.46;43.29
23619;BME280;18207;32.078;34.818;2023-06-26T11:20:15;100239.31;;;34.46;43.35
23619;BME280;18207;32.078;34.818;2023-06-26T11:22:46;100238.06;;;34.47;43.74
23619;BME280;18207;32.078;34.818;2023-06-26T11:25:16;100237.59;;;34.48;43.50
23619;BME280;18207;32.078;34.818;2023-06-26T11:27:49;100235.13;;;34.50;43.19
23619;BME280;18207;32.078;34.818;2023-06-26T11:30:27;100234.25;;;34.53;43.32
23619;BME280;18207;32.078;34.818;2023-06-26T11:33:04;100240.75;;;34.54;43.69
23619;BME280;18207;32.078;34.818;2023-06-26T11:35:37;100235.84;;;34.54;43.90
23619;BME280;18207;32.078;34.818;2023-06-26T11:38:07;100230.13;;;34.54;43.97
23619;BME280;18207;32.078;34.818;2023-06-26T11:40:37;100230.13;;;34.54;43.91
23619;BME280;18207;32.078;34.818;2023-06-26T11:43:09;100232.63;;;34.52;43.21
23619;BME280;18207;32.078;34.818;2023-06-26T11:45:40;100233.50;;;34.49;43.55
23619;BME280;18207;32.078;34.818;2023-06-26T11:48:10;100233.97;;;34.48;43.58
23619;BME280;18207;32.078;34.818;2023-06-26T11:50:43;100232.34;;;34.47;43.49
23619;BME280;18207;32.078;34.818;2023-06-26T11:53:15;100227.88;;;34.46;42.73
23619;BME280;18207;32.078;34.818;2023-06-26T11:55:46;100229.94;;;34.45;42.69
23619;BME280;18207;32.078;34.818;2023-06-26T11:58:15;100228.66;;;34.46;42.91
23619;BME280;18207;32.078;34.818;2023-06-26T12:00:47;100227.00;;;34.49;43.11
23619;BME280;18207;32.078;34.818;2023-06-26T12:03:17;100229.03;;;34.48;43.26
23619;BME280;18207;32.078;34.818;2023-06-26T12:05:50;100231.91;;;34.48;42.82
23619;BME280;18207;32.078;34.818;2023-06-26T12:08:20;100234.75;;;34.48;43.21
23619;BME280;18207;32.078;34.818;2023-06-26T12:10:51;100234.75;;;34.48;43.05
23619;BME280;18207;32.078;34.818;2023-06-26T12:13:21;100238.44;;;34.49;42.72
23619;BME280;18207;32.078;34.818;2023-06-26T12:15:51;100234.31;;;34.50;43.17
23619;BME280;18207;32.078;34.818;2023-06-26T12:18:22;100239.22;;;34.49;42.78
23619;BME280;18207;32.078;34.818;2023-06-26T12:20:54;100229.88;;;34.49;42.76
23619;BME280;18207;32.078;34.818;2023-06-26T12:23:32;100228.25;;;34.48;42.68
23619;BME280;18207;32.078;34.818;2023-06-26T12:26:17;100233.97;;;34.48;43.29
23619;BME280;18207;32.078;34.818;2023-06-26T12:28:48;100227.09;;;34.45;42.83
23619;BME280;18207;32.078;34.818;2023-06-26T12:31:21;100232.81;;;34.45;43.21
23619;BME280;18207;32.078;34.818;2023-06-26T12:33:53;100225.47;;;34.44;43.19
23619;BME280;18207;32.078;34.818;2023-06-26T12:36:25;100227.50;;;34.44;42.82
23619;BME280;18207;32.078;34.818;2023-06-26T12:38:55;100230.38;;;34.44;43.19
23619;BME280;18207;32.078;34.818;2023-06-26T12:41:25;100216.56;;;34.42;42.64
23619;BME280;18207;32.078;34.818;2023-06-26T12:43:56;100220.19;;;34.43;43.23
23619;BME280;18207;32.078;34.818;2023-06-26T12:46:34;100217.00;;;34.41;43.28
23619;BME280;18207;32.078;34.818;2023-06-26T12:49:06;100210.09;;;34.38;43.25
23619;BME280;18207;32.078;34.818;2023-06-26T12:51:57;100204.84;;;34.37;42.48
23619;BME280;18207;32.078;34.818;2023-06-26T12:54:28;100209.78;;;34.36;42.74
23619;BME280;18207;32.078;34.818;2023-06-26T12:56:59;100203.25;;;34.36;43.20
23619;BME280;18207;32.078;34.818;2023-06-26T12:59:32;100206.09;;;34.36;42.63
23619;BME280;18207;32.078;34.818;2023-06-26T13:02:03;100202.00;;;34.37;43.16
23619;BME280;18207;32.078;34.818;2023-06-26T13:04:35;100201.22;;;34.36;43.03